sensor_id;sensor_type;location;lat;lon;timestamp;P1;durP1;ratioP1;P2;durP2;ratioP2
54993;SDS011;40891;47.242;8.648;2023-06-22T00:01:00;9.13;;;5.18;;
54993;SDS011;40891;47.242;8.648;2023-06-22T00:03:26;13.50;;;5.60;;
54993;SDS011;40891;47.242;8.648;2023-06-22T00:05:52;12.43;;;4.95;;
54993;SDS011;40891;47.242;8.648;2023-06-22T00:08:18;14.32;;;5.63;;
54993;SDS011;40891;47.242;8.648;2023-06-22T00:10:44;10.40;;;5.55;;
54993;SDS011;40891;47.242;8.648;2023-06-22T00:13:10;14.10;;;5.53;;
54993;SDS011;40891;47.242;8.648;2023-06-22T00:15:37;13.43;;;5.90;;
54993;SDS011;40891;47.242;8.648;2023-06-22T00:18:03;13.63;;;6.03;;
54993;SDS011;40891;47.242;8.648;2023-06-22T00:20:29;12.70;;;5.40;;
54993;SDS011;40891;47.242;8.648;2023-06-22T00:22:55;12.75;;;5.78;;
54993;SDS011;40891;47.242;8.648;2023-06-22T00:25:21;9.57;;;5.60;;
54993;SDS011;40891;47.242;8.648;2023-06-22T00:27:47;14.90;;;6.22;;
54993;SDS011;40891;47.242;8.648;2023-06-22T00:30:13;15.48;;;6.43;;
54993;SDS011;40891;47.242;8.648;2023-06-22T00:32:39;13.88;;;7.05;;
54993;SDS011;40891;47.242;8.648;2023-06-22T00:35:04;12.13;;;6.82;;
54993;SDS011;40891;47.242;8.648;2023-06-22T00:37:30;15.68;;;6.88;;
54993;SDS011;40891;47.242;8.648;2023-06-22T00:39:58;17.98;;;7.75;;
54993;SDS011;40891;47.242;8.648;2023-06-22T00:42:23;16.85;;;7.53;;
54993;SDS011;40891;47.242;8.648;2023-06-22T00:44:49;16.90;;;7.07;;
54993;SDS011;40891;47.242;8.648;2023-06-22T00:47:15;15.57;;;8.45;;
54993;SDS011;40891;47.242;8.648;2023-06-22T00:49:42;13.35;;;7.82;;
54993;SDS011;40891;47.242;8.648;2023-06-22T00:52:08;15.75;;;7.70;;
54993;SDS011;40891;47.242;8.648;2023-06-22T00:54:39;14.73;;;7.95;;
54993;SDS011;40891;47.242;8.648;2023-06-22T00:57:13;12.18;;;7.07;;
54993;SDS011;40891;47.242;8.648;2023-06-22T00:59:41;14.02;;;7.82;;
54993;SDS011;40891;47.242;8.648;2023-06-22T01:02:08;17.13;;;7.38;;
54993;SDS011;40891;47.242;8.648;2023-06-22T01:04:34;12.70;;;7.43;;
54993;SDS011;40891;47.242;8.648;2023-06-22T01:07:13;18.88;;;8.13;;
54993;SDS011;40891;47.242;8.648;2023-06-22T01:09:51;14.15;;;7.35;;
54993;SDS011;40891;47.242;8.648;2023-06-22T01:12:21;13.25;;;7.28;;
54993;SDS011;40891;47.242;8.648;2023-06-22T01:14:50;16.17;;;7.45;;
54993;SDS011;40891;47.242;8.648;2023-06-22T01:17:21;13.38;;;7.38;;
54993;SDS011;40891;47.242;8.648;2023-06-22T01:19:53;16.92;;;7.38;;
54993;SDS011;40891;47.242;8.648;2023-06-22T01:22:22;13.25;;;7.43;;
54993;SDS011;40891;47.242;8.648;2023-06-22T01:30:22;19.23;;;8.60;;
54993;SDS011;40891;47.242;8.648;2023-06-22T01:32:51;12.50;;;7.50;;
54993;SDS011;40891;47.242;8.648;2023-06-22T01:35:19;16.70;;;8.15;;
54993;SDS011;40891;47.242;8.648;2023-06-22T01:37:46;16.15;;;8.13;;
54993;SDS011;40891;47.242;8.648;2023-06-22T01:40:12;16.17;;;8.10;;
54993;SDS011;40891;47.242;8.648;2023-06-22T01:42:38;11.50;;;7.63;;
54993;SDS011;40891;47.242;8.648;2023-06-22T01:45:04;16.50;;;7.53;;
54993;SDS011;40891;47.242;8.648;2023-06-22T01:47:31;14.65;;;7.28;;
54993;SDS011;40891;47.242;8.648;2023-06-22T01:49:57;17.35;;;7.90;;
54993;SDS011;40891;47.242;8.648;2023-06-22T01:52:22;15.88;;;7.80;;
54993;SDS011;40891;47.242;8.648;2023-06-22T01:54:48;14.23;;;7.28;;
54993;SDS011;40891;47.242;8.648;2023-06-22T01:57:13;15.15;;;7.38;;
54993;SDS011;40891;47.242;8.648;2023-06-22T01:59:40;15.55;;;7.20;;
54993;SDS011;40891;47.242;8.648;2023-06-22T02:02:14;14.27;;;7.10;;
54993;SDS011;40891;47.242;8.648;2023-06-22T02:04:48;16.73;;;7.53;;
54993;SDS011;40891;47.242;8.648;2023-06-22T02:07:20;12.90;;;7.18;;
54993;SDS011;40891;47.242;8.648;2023-06-22T02:09:49;12.90;;;7.20;;
54993;SDS011;40891;47.242;8.648;2023-06-22T02:12:18;18.88;;;7.20;;
54993;SDS011;40891;47.242;8.648;2023-06-22T02:14:47;14.13;;;7.68;;
54993;SDS011;40891;47.242;8.648;2023-06-22T02:17:13;14.63;;;7.30;;
54993;SDS011;40891;47.242;8.648;2023-06-22T02:19:42;13.75;;;6.97;;
54993;SDS011;40891;47.242;8.648;2023-06-22T02:22:07;14.75;;;6.85;;
54993;SDS011;40891;47.242;8.648;2023-06-22T02:24:33;15.65;;;7.07;;
54993;SDS011;40891;47.242;8.648;2023-06-22T02:26:58;14.45;;;7.43;;
54993;SDS011;40891;47.242;8.648;2023-06-22T02:29:25;16.73;;;7.20;;
54993;SDS011;40891;47.242;8.648;2023-06-22T02:31:51;23.60;;;7.90;;
54993;SDS011;40891;47.242;8.648;2023-06-22T02:34:17;19.75;;;7.55;;
54993;SDS011;40891;47.242;8.648;2023-06-22T02:36:46;10.48;;;6.68;;
54993;SDS011;40891;47.242;8.648;2023-06-22T02:39:21;15.18;;;6.88;;
54993;SDS011;40891;47.242;8.648;2023-06-22T02:41:51;12.07;;;7.10;;
54993;SDS011;40891;47.242;8.648;2023-06-22T02:44:18;9.25;;;6.40;;
54993;SDS011;40891;47.242;8.648;2023-06-22T02:46:43;12.55;;;6.47;;
54993;SDS011;40891;47.242;8.648;2023-06-22T02:49:09;16.10;;;6.57;;
54993;SDS011;40891;47.242;8.648;2023-06-22T02:51:36;13.35;;;6.82;;
54993;SDS011;40891;47.242;8.648;2023-06-22T02:54:04;14.30;;;6.53;;
54993;SDS011;40891;47.242;8.648;2023-06-22T02:56:30;10.63;;;6.20;;
54993;SDS011;40891;47.242;8.648;2023-06-22T02:58:55;13.65;;;7.03;;
54993;SDS011;40891;47.242;8.648;2023-06-22T03:01:26;12.07;;;6.53;;
54993;SDS011;40891;47.242;8.648;2023-06-22T03:03:53;12.93;;;6.35;;
54993;SDS011;40891;47.242;8.648;2023-06-22T03:06:19;14.30;;;6.75;;
54993;SDS011;40891;47.242;8.648;2023-06-22T03:08:48;18.33;;;6.97;;
54993;SDS011;40891;47.242;8.648;2023-06-22T03:11:16;11.77;;;6.22;;
54993;SDS011;40891;47.242;8.648;2023-06-22T03:13:41;13.77;;;7.65;;
54993;SDS011;40891;47.242;8.648;2023-06-22T03:16:07;13.20;;;7.05;;
54993;SDS011;40891;47.242;8.648;2023-06-22T03:18:32;14.35;;;6.95;;
54993;SDS011;40891;47.242;8.648;2023-06-22T03:20:57;18.35;;;7.55;;
54993;SDS011;40891;47.242;8.648;2023-06-22T03:23:23;16.10;;;6.97;;
54993;SDS011;40891;47.242;8.648;2023-06-22T03:25:48;12.27;;;7.40;;
54993;SDS011;40891;47.242;8.648;2023-06-22T03:28:14;13.23;;;6.93;;
54993;SDS011;40891;47.242;8.648;2023-06-22T03:30:39;13.02;;;7.15;;
54993;SDS011;40891;47.242;8.648;2023-06-22T03:33:04;15.38;;;8.00;;
54993;SDS011;40891;47.242;8.648;2023-06-22T03:35:30;16.33;;;8.38;;
54993;SDS011;40891;47.242;8.648;2023-06-22T03:37:55;16.83;;;8.57;;
54993;SDS011;40891;47.242;8.648;2023-06-22T03:40:20;18.40;;;8.40;;
54993;SDS011;40891;47.242;8.648;2023-06-22T03:42:46;13.50;;;8.25;;
54993;SDS011;40891;47.242;8.648;2023-06-22T03:45:11;18.38;;;8.38;;
54993;SDS011;40891;47.242;8.648;2023-06-22T03:47:36;14.68;;;7.97;;
54993;SDS011;40891;47.242;8.648;2023-06-22T03:50:02;16.77;;;7.50;;
54993;SDS011;40891;47.242;8.648;2023-06-22T03:52:28;22.67;;;8.35;;
54993;SDS011;40891;47.242;8.648;2023-06-22T03:54:54;16.80;;;8.57;;
54993;SDS011;40891;47.242;8.648;2023-06-22T03:57:20;14.18;;;8.68;;
54993;SDS011;40891;47.242;8.648;2023-06-22T03:59:45;15.80;;;8.27;;
54993;SDS011;40891;47.242;8.648;2023-06-22T04:02:11;14.95;;;7.95;;
54993;SDS011;40891;47.242;8.648;2023-06-22T04:04:36;16.92;;;8.20;;
54993;SDS011;40891;47.242;8.648;2023-06-22T04:07:03;14.82;;;8.00;;
54993;SDS011;40891;47.242;8.648;2023-06-22T04:09:29;17.90;;;8.48;;
54993;SDS011;40891;47.242;8.648;2023-06-22T04:11:54;14.23;;;7.88;;
54993;SDS011;40891;47.242;8.648;2023-06-22T04:14:19;16.90;;;8.50;;
54993;SDS011;40891;47.242;8.648;2023-06-22T04:16:45;15.10;;;8.23;;
54993;SDS011;40891;47.242;8.648;2023-06-22T04:19:10;17.55;;;8.20;;
54993;SDS011;40891;47.242;8.648;2023-06-22T04:21:41;13.20;;;8.30;;
54993;SDS011;40891;47.242;8.648;2023-06-22T04:24:06;18.13;;;9.32;;
54993;SDS011;40891;47.242;8.648;2023-06-22T04:26:31;15.02;;;8.98;;
54993;SDS011;40891;47.242;8.648;2023-06-22T04:29:01;16.20;;;9.30;;
54993;SDS011;40891;47.242;8.648;2023-06-22T04:31:30;16.02;;;8.07;;
54993;SDS011;40891;47.242;8.648;2023-06-22T04:33:57;18.42;;;7.93;;
54993;SDS011;40891;47.242;8.648;2023-06-22T04:36:22;13.15;;;7.88;;
54993;SDS011;40891;47.242;8.648;2023-06-22T04:38:48;15.82;;;8.50;;
54993;SDS011;40891;47.242;8.648;2023-06-22T04:41:17;20.45;;;8.00;;
54993;SDS011;40891;47.242;8.648;2023-06-22T04:43:48;18.42;;;7.43;;
54993;SDS011;40891;47.242;8.648;2023-06-22T04:46:18;15.38;;;7.65;;
54993;SDS011;40891;47.242;8.648;2023-06-22T04:48:44;13.55;;;7.07;;
54993;SDS011;40891;47.242;8.648;2023-06-22T04:51:09;12.55;;;6.97;;
54993;SDS011;40891;47.242;8.648;2023-06-22T04:53:35;12.43;;;6.88;;
54993;SDS011;40891;47.242;8.648;2023-06-22T04:56:01;12.48;;;7.05;;
54993;SDS011;40891;47.242;8.648;2023-06-22T04:58:29;16.02;;;7.00;;
54993;SDS011;40891;47.242;8.648;2023-06-22T05:00:57;13.10;;;6.55;;
54993;SDS011;40891;47.242;8.648;2023-06-22T05:03:24;18.98;;;8.43;;
54993;SDS011;40891;47.242;8.648;2023-06-22T05:05:51;24.17;;;8.43;;
54993;SDS011;40891;47.242;8.648;2023-06-22T05:08:17;19.00;;;8.50;;
54993;SDS011;40891;47.242;8.648;2023-06-22T05:10:42;16.63;;;8.35;;
54993;SDS011;40891;47.242;8.648;2023-06-22T05:13:08;14.90;;;7.50;;
54993;SDS011;40891;47.242;8.648;2023-06-22T05:15:33;16.20;;;7.65;;
54993;SDS011;40891;47.242;8.648;2023-06-22T05:18:04;21.90;;;8.50;;
54993;SDS011;40891;47.242;8.648;2023-06-22T05:20:30;18.67;;;9.02;;
54993;SDS011;40891;47.242;8.648;2023-06-22T05:22:55;15.38;;;8.68;;
54993;SDS011;40891;47.242;8.648;2023-06-22T05:25:21;21.27;;;8.75;;
54993;SDS011;40891;47.242;8.648;2023-06-22T05:27:46;17.20;;;8.75;;
54993;SDS011;40891;47.242;8.648;2023-06-22T05:30:11;15.95;;;8.48;;
54993;SDS011;40891;47.242;8.648;2023-06-22T05:32:37;16.85;;;9.15;;
54993;SDS011;40891;47.242;8.648;2023-06-22T05:35:02;13.57;;;8.18;;
54993;SDS011;40891;47.242;8.648;2023-06-22T05:37:28;17.73;;;8.73;;
54993;SDS011;40891;47.242;8.648;2023-06-22T05:39:54;20.50;;;9.02;;
54993;SDS011;40891;47.242;8.648;2023-06-22T05:42:20;19.42;;;8.65;;
54993;SDS011;40891;47.242;8.648;2023-06-22T05:44:46;16.88;;;8.45;;
54993;SDS011;40891;47.242;8.648;2023-06-22T05:47:12;15.40;;;8.45;;
54993;SDS011;40891;47.242;8.648;2023-06-22T05:49:37;24.17;;;8.80;;
54993;SDS011;40891;47.242;8.648;2023-06-22T05:52:03;21.92;;;9.30;;
54993;SDS011;40891;47.242;8.648;2023-06-22T05:54:28;22.98;;;9.38;;
54993;SDS011;40891;47.242;8.648;2023-06-22T05:56:54;17.70;;;9.75;;
54993;SDS011;40891;47.242;8.648;2023-06-22T05:59:19;16.58;;;9.48;;
54993;SDS011;40891;47.242;8.648;2023-06-22T06:01:44;20.25;;;9.82;;
54993;SDS011;40891;47.242;8.648;2023-06-22T06:04:14;19.55;;;8.95;;
54993;SDS011;40891;47.242;8.648;2023-06-22T06:06:40;20.80;;;9.82;;
54993;SDS011;40891;47.242;8.648;2023-06-22T06:09:05;16.80;;;9.65;;
54993;SDS011;40891;47.242;8.648;2023-06-22T06:11:32;16.85;;;9.15;;
54993;SDS011;40891;47.242;8.648;2023-06-22T06:13:58;24.85;;;10.20;;
54993;SDS011;40891;47.242;8.648;2023-06-22T06:16:23;20.95;;;10.00;;
54993;SDS011;40891;47.242;8.648;2023-06-22T06:18:48;22.73;;;10.43;;
54993;SDS011;40891;47.242;8.648;2023-06-22T06:21:15;18.08;;;9.40;;
54993;SDS011;40891;47.242;8.648;2023-06-22T06:23:41;14.88;;;9.02;;
54993;SDS011;40891;47.242;8.648;2023-06-22T06:26:07;17.35;;;9.90;;
54993;SDS011;40891;47.242;8.648;2023-06-22T06:28:32;18.52;;;9.43;;
54993;SDS011;40891;47.242;8.648;2023-06-22T06:30:58;20.73;;;10.25;;
54993;SDS011;40891;47.242;8.648;2023-06-22T06:33:23;18.38;;;10.07;;
54993;SDS011;40891;47.242;8.648;2023-06-22T06:35:49;23.60;;;10.38;;
54993;SDS011;40891;47.242;8.648;2023-06-22T06:38:14;17.73;;;9.05;;
54993;SDS011;40891;47.242;8.648;2023-06-22T06:40:40;20.33;;;9.45;;
54993;SDS011;40891;47.242;8.648;2023-06-22T06:43:05;20.73;;;9.38;;
54993;SDS011;40891;47.242;8.648;2023-06-22T06:45:31;18.20;;;9.50;;
54993;SDS011;40891;47.242;8.648;2023-06-22T06:47:57;15.48;;;9.32;;
54993;SDS011;40891;47.242;8.648;2023-06-22T06:50:23;21.13;;;9.15;;
54993;SDS011;40891;47.242;8.648;2023-06-22T06:52:48;23.00;;;9.98;;
54993;SDS011;40891;47.242;8.648;2023-06-22T06:55:15;23.15;;;10.02;;
54993;SDS011;40891;47.242;8.648;2023-06-22T06:57:41;16.23;;;9.60;;
54993;SDS011;40891;47.242;8.648;2023-06-22T07:00:07;18.15;;;9.07;;
54993;SDS011;40891;47.242;8.648;2023-06-22T07:02:37;18.98;;;10.00;;
54993;SDS011;40891;47.242;8.648;2023-06-22T07:05:04;19.38;;;9.38;;
54993;SDS011;40891;47.242;8.648;2023-06-22T07:07:30;22.17;;;9.77;;
54993;SDS011;40891;47.242;8.648;2023-06-22T07:09:56;16.52;;;8.88;;
54993;SDS011;40891;47.242;8.648;2023-06-22T07:12:22;15.88;;;8.98;;
54993;SDS011;40891;47.242;8.648;2023-06-22T07:14:47;22.02;;;9.00;;
54993;SDS011;40891;47.242;8.648;2023-06-22T07:17:13;21.08;;;8.38;;
54993;SDS011;40891;47.242;8.648;2023-06-22T07:19:38;18.45;;;8.10;;
54993;SDS011;40891;47.242;8.648;2023-06-22T07:22:03;19.73;;;8.50;;
54993;SDS011;40891;47.242;8.648;2023-06-22T07:24:29;18.33;;;9.45;;
54993;SDS011;40891;47.242;8.648;2023-06-22T07:26:54;17.73;;;8.95;;
54993;SDS011;40891;47.242;8.648;2023-06-22T07:29:22;20.02;;;10.00;;
54993;SDS011;40891;47.242;8.648;2023-06-22T07:31:49;26.33;;;10.57;;
54993;SDS011;40891;47.242;8.648;2023-06-22T07:34:15;23.63;;;11.30;;
54993;SDS011;40891;47.242;8.648;2023-06-22T07:36:40;18.95;;;11.07;;
54993;SDS011;40891;47.242;8.648;2023-06-22T07:39:05;20.58;;;11.60;;
54993;SDS011;40891;47.242;8.648;2023-06-22T07:41:31;21.27;;;10.68;;
54993;SDS011;40891;47.242;8.648;2023-06-22T07:43:57;19.00;;;10.50;;
54993;SDS011;40891;47.242;8.648;2023-06-22T07:46:23;19.08;;;10.93;;
54993;SDS011;40891;47.242;8.648;2023-06-22T07:48:48;22.25;;;11.10;;
54993;SDS011;40891;47.242;8.648;2023-06-22T07:51:13;22.48;;;12.15;;
54993;SDS011;40891;47.242;8.648;2023-06-22T07:53:40;24.17;;;10.48;;
54993;SDS011;40891;47.242;8.648;2023-06-22T07:56:06;20.58;;;10.75;;
54993;SDS011;40891;47.242;8.648;2023-06-22T07:58:32;20.75;;;10.98;;
54993;SDS011;40891;47.242;8.648;2023-06-22T08:00:57;16.88;;;11.52;;
54993;SDS011;40891;47.242;8.648;2023-06-22T08:03:23;25.10;;;11.75;;
54993;SDS011;40891;47.242;8.648;2023-06-22T08:05:48;16.05;;;9.82;;
54993;SDS011;40891;47.242;8.648;2023-06-22T08:08:14;23.08;;;10.55;;
54993;SDS011;40891;47.242;8.648;2023-06-22T08:10:39;20.83;;;10.23;;
54993;SDS011;40891;47.242;8.648;2023-06-22T08:13:06;23.92;;;11.32;;
54993;SDS011;40891;47.242;8.648;2023-06-22T08:15:31;25.65;;;11.50;;
54993;SDS011;40891;47.242;8.648;2023-06-22T08:17:56;20.13;;;11.88;;
54993;SDS011;40891;47.242;8.648;2023-06-22T08:20:22;19.92;;;11.20;;
54993;SDS011;40891;47.242;8.648;2023-06-22T08:22:48;21.48;;;12.05;;
54993;SDS011;40891;47.242;8.648;2023-06-22T08:25:13;20.25;;;11.77;;
54993;SDS011;40891;47.242;8.648;2023-06-22T08:27:39;21.10;;;10.27;;
54993;SDS011;40891;47.242;8.648;2023-06-22T08:30:05;22.73;;;10.38;;
54993;SDS011;40891;47.242;8.648;2023-06-22T08:32:31;15.98;;;10.27;;
54993;SDS011;40891;47.242;8.648;2023-06-22T08:34:57;21.20;;;10.30;;
54993;SDS011;40891;47.242;8.648;2023-06-22T08:37:23;17.40;;;10.32;;
54993;SDS011;40891;47.242;8.648;2023-06-22T08:39:55;21.50;;;9.73;;
54993;SDS011;40891;47.242;8.648;2023-06-22T08:42:21;15.35;;;8.68;;
54993;SDS011;40891;47.242;8.648;2023-06-22T08:44:46;21.42;;;9.70;;
54993;SDS011;40891;47.242;8.648;2023-06-22T08:47:11;21.83;;;9.02;;
54993;SDS011;40891;47.242;8.648;2023-06-22T08:49:36;24.42;;;9.63;;
54993;SDS011;40891;47.242;8.648;2023-06-22T08:52:02;28.63;;;9.77;;
54993;SDS011;40891;47.242;8.648;2023-06-22T08:54:27;21.85;;;9.38;;
54993;SDS011;40891;47.242;8.648;2023-06-22T08:56:52;20.30;;;8.68;;
54993;SDS011;40891;47.242;8.648;2023-06-22T08:59:18;15.75;;;9.02;;
54993;SDS011;40891;47.242;8.648;2023-06-22T09:01:43;18.13;;;8.45;;
54993;SDS011;40891;47.242;8.648;2023-06-22T09:04:13;17.25;;;8.45;;
54993;SDS011;40891;47.242;8.648;2023-06-22T09:06:39;14.02;;;7.95;;
54993;SDS011;40891;47.242;8.648;2023-06-22T09:09:09;25.75;;;9.18;;
54993;SDS011;40891;47.242;8.648;2023-06-22T09:11:34;14.35;;;7.70;;
54993;SDS011;40891;47.242;8.648;2023-06-22T09:14:00;17.63;;;8.32;;
54993;SDS011;40891;47.242;8.648;2023-06-22T09:16:25;19.30;;;7.75;;
54993;SDS011;40891;47.242;8.648;2023-06-22T09:18:50;20.52;;;8.98;;
54993;SDS011;40891;47.242;8.648;2023-06-22T09:21:16;18.98;;;7.55;;
54993;SDS011;40891;47.242;8.648;2023-06-22T09:23:41;15.60;;;8.02;;
54993;SDS011;40891;47.242;8.648;2023-06-22T09:26:07;13.98;;;7.70;;
54993;SDS011;40891;47.242;8.648;2023-06-22T09:28:33;20.27;;;9.70;;
54993;SDS011;40891;47.242;8.648;2023-06-22T09:30:58;21.50;;;8.82;;
54993;SDS011;40891;47.242;8.648;2023-06-22T09:33:25;17.15;;;7.43;;
54993;SDS011;40891;47.242;8.648;2023-06-22T09:35:51;15.43;;;8.13;;
54993;SDS011;40891;47.242;8.648;2023-06-22T09:38:16;19.02;;;8.60;;
54993;SDS011;40891;47.242;8.648;2023-06-22T09:40:42;18.45;;;8.80;;
54993;SDS011;40891;47.242;8.648;2023-06-22T09:43:07;17.48;;;8.75;;
54993;SDS011;40891;47.242;8.648;2023-06-22T09:45:32;21.23;;;9.35;;
54993;SDS011;40891;47.242;8.648;2023-06-22T09:47:58;17.48;;;10.23;;
54993;SDS011;40891;47.242;8.648;2023-06-22T09:50:23;21.23;;;9.68;;
54993;SDS011;40891;47.242;8.648;2023-06-22T09:52:48;24.75;;;9.32;;
54993;SDS011;40891;47.242;8.648;2023-06-22T09:55:19;21.33;;;10.45;;
54993;SDS011;40891;47.242;8.648;2023-06-22T09:57:44;16.70;;;10.07;;
54993;SDS011;40891;47.242;8.648;2023-06-22T10:00:10;15.95;;;10.45;;
54993;SDS011;40891;47.242;8.648;2023-06-22T10:02:38;23.70;;;11.13;;
54993;SDS011;40891;47.242;8.648;2023-06-22T10:05:04;17.77;;;11.65;;
54993;SDS011;40891;47.242;8.648;2023-06-22T10:07:29;21.23;;;10.88;;
54993;SDS011;40891;47.242;8.648;2023-06-22T10:09:54;18.85;;;11.05;;
54993;SDS011;40891;47.242;8.648;2023-06-22T10:12:20;17.92;;;9.35;;
54993;SDS011;40891;47.242;8.648;2023-06-22T10:14:45;16.60;;;10.38;;
54993;SDS011;40891;47.242;8.648;2023-06-22T10:17:10;22.27;;;11.30;;
54993;SDS011;40891;47.242;8.648;2023-06-22T10:19:36;21.13;;;9.77;;
54993;SDS011;40891;47.242;8.648;2023-06-22T10:22:02;23.73;;;9.73;;
54993;SDS011;40891;47.242;8.648;2023-06-22T10:24:28;16.77;;;10.13;;
54993;SDS011;40891;47.242;8.648;2023-06-22T10:26:54;21.58;;;11.02;;
54993;SDS011;40891;47.242;8.648;2023-06-22T10:29:20;23.33;;;11.90;;
54993;SDS011;40891;47.242;8.648;2023-06-22T10:31:45;22.40;;;11.18;;
54993;SDS011;40891;47.242;8.648;2023-06-22T10:34:11;26.80;;;11.77;;
54993;SDS011;40891;47.242;8.648;2023-06-22T10:36:36;20.52;;;11.52;;
54993;SDS011;40891;47.242;8.648;2023-06-22T10:39:01;24.95;;;11.30;;
54993;SDS011;40891;47.242;8.648;2023-06-22T10:41:27;22.65;;;10.77;;
54993;SDS011;40891;47.242;8.648;2023-06-22T10:43:55;19.13;;;9.85;;
54993;SDS011;40891;47.242;8.648;2023-06-22T10:46:20;18.20;;;9.90;;
54993;SDS011;40891;47.242;8.648;2023-06-22T10:48:46;17.33;;;10.00;;
54993;SDS011;40891;47.242;8.648;2023-06-22T10:51:11;15.38;;;9.50;;
54993;SDS011;40891;47.242;8.648;2023-06-22T10:53:36;27.33;;;10.02;;
54993;SDS011;40891;47.242;8.648;2023-06-22T10:56:01;25.88;;;10.38;;
54993;SDS011;40891;47.242;8.648;2023-06-22T10:58:27;25.65;;;10.90;;
54993;SDS011;40891;47.242;8.648;2023-06-22T11:00:52;21.38;;;9.63;;
54993;SDS011;40891;47.242;8.648;2023-06-22T11:03:17;20.27;;;10.50;;
54993;SDS011;40891;47.242;8.648;2023-06-22T11:05:43;23.30;;;10.85;;
54993;SDS011;40891;47.242;8.648;2023-06-22T11:08:08;17.75;;;9.85;;
54993;SDS011;40891;47.242;8.648;2023-06-22T11:10:33;15.27;;;9.43;;
54993;SDS011;40891;47.242;8.648;2023-06-22T11:12:59;23.55;;;9.18;;
54993;SDS011;40891;47.242;8.648;2023-06-22T11:15:24;20.48;;;9.93;;
54993;SDS011;40891;47.242;8.648;2023-06-22T11:17:50;24.63;;;10.40;;
54993;SDS011;40891;47.242;8.648;2023-06-22T11:20:15;22.77;;;9.30;;
54993;SDS011;40891;47.242;8.648;2023-06-22T11:22:41;18.55;;;9.60;;
54993;SDS011;40891;47.242;8.648;2023-06-22T11:25:07;24.77;;;9.90;;
54993;SDS011;40891;47.242;8.648;2023-06-22T11:27:34;21.50;;;8.45;;
54993;SDS011;40891;47.242;8.648;2023-06-22T11:29:59;17.70;;;7.72;;
54993;SDS011;40891;47.242;8.648;2023-06-22T11:32:25;20.17;;;8.07;;
54993;SDS011;40891;47.242;8.648;2023-06-22T11:34:51;20.13;;;9.30;;
54993;SDS011;40891;47.242;8.648;2023-06-22T11:37:16;16.20;;;8.82;;
54993;SDS011;40891;47.242;8.648;2023-06-22T11:39:42;18.63;;;8.52;;
54993;SDS011;40891;47.242;8.648;2023-06-22T11:42:07;18.85;;;8.75;;
54993;SDS011;40891;47.242;8.648;2023-06-22T11:44:34;19.73;;;8.05;;
54993;SDS011;40891;47.242;8.648;2023-06-22T11:46:59;17.63;;;8.25;;
54993;SDS011;40891;47.242;8.648;2023-06-22T11:49:26;17.75;;;7.53;;
54993;SDS011;40891;47.242;8.648;2023-06-22T11:51:51;14.50;;;7.25;;
54993;SDS011;40891;47.242;8.648;2023-06-22T11:54:17;16.42;;;7.30;;
54993;SDS011;40891;47.242;8.648;2023-06-22T11:56:42;25.95;;;9.18;;
54993;SDS011;40891;47.242;8.648;2023-06-22T11:59:07;13.80;;;6.88;;
54993;SDS011;40891;47.242;8.648;2023-06-22T12:01:33;23.38;;;8.10;;
54993;SDS011;40891;47.242;8.648;2023-06-22T12:03:58;16.50;;;7.90;;
54993;SDS011;40891;47.242;8.648;2023-06-22T12:06:23;19.50;;;7.57;;
54993;SDS011;40891;47.242;8.648;2023-06-22T12:08:49;19.15;;;7.53;;
54993;SDS011;40891;47.242;8.648;2023-06-22T12:11:14;14.65;;;6.30;;
54993;SDS011;40891;47.242;8.648;2023-06-22T12:13:39;18.67;;;7.63;;
54993;SDS011;40891;47.242;8.648;2023-06-22T12:16:04;16.45;;;7.35;;
54993;SDS011;40891;47.242;8.648;2023-06-22T12:18:30;19.73;;;6.28;;
54993;SDS011;40891;47.242;8.648;2023-06-22T12:20:55;16.00;;;6.65;;
54993;SDS011;40891;47.242;8.648;2023-06-22T12:23:20;20.55;;;7.00;;
54993;SDS011;40891;47.242;8.648;2023-06-22T12:25:46;15.98;;;6.78;;
54993;SDS011;40891;47.242;8.648;2023-06-22T12:28:11;11.88;;;6.00;;
54993;SDS011;40891;47.242;8.648;2023-06-22T12:30:36;20.95;;;6.45;;
54993;SDS011;40891;47.242;8.648;2023-06-22T12:33:01;18.70;;;5.75;;
54993;SDS011;40891;47.242;8.648;2023-06-22T12:35:27;12.82;;;6.22;;
54993;SDS011;40891;47.242;8.648;2023-06-22T12:37:52;15.93;;;5.78;;
54993;SDS011;40891;47.242;8.648;2023-06-22T12:40:18;17.30;;;5.78;;
54993;SDS011;40891;47.242;8.648;2023-06-22T12:42:44;18.33;;;5.57;;
54993;SDS011;40891;47.242;8.648;2023-06-22T12:45:10;12.82;;;6.05;;
54993;SDS011;40891;47.242;8.648;2023-06-22T12:47:35;23.10;;;6.10;;
54993;SDS011;40891;47.242;8.648;2023-06-22T12:50:00;13.07;;;5.85;;
54993;SDS011;40891;47.242;8.648;2023-06-22T12:52:26;20.90;;;6.03;;
54993;SDS011;40891;47.242;8.648;2023-06-22T12:54:51;14.70;;;5.72;;
54993;SDS011;40891;47.242;8.648;2023-06-22T12:57:17;19.75;;;5.93;;
54993;SDS011;40891;47.242;8.648;2023-06-22T12:59:44;14.65;;;5.68;;
54993;SDS011;40891;47.242;8.648;2023-06-22T13:02:09;14.02;;;5.85;;
54993;SDS011;40891;47.242;8.648;2023-06-22T13:04:35;11.90;;;5.53;;
54993;SDS011;40891;47.242;8.648;2023-06-22T13:07:00;13.48;;;6.07;;
54993;SDS011;40891;47.242;8.648;2023-06-22T13:09:25;14.80;;;6.35;;
54993;SDS011;40891;47.242;8.648;2023-06-22T13:11:50;17.27;;;5.40;;
54993;SDS011;40891;47.242;8.648;2023-06-22T13:14:17;17.73;;;5.47;;
54993;SDS011;40891;47.242;8.648;2023-06-22T13:16:43;16.77;;;5.65;;
54993;SDS011;40891;47.242;8.648;2023-06-22T13:19:08;16.70;;;5.85;;
54993;SDS011;40891;47.242;8.648;2023-06-22T13:21:33;17.90;;;5.97;;
54993;SDS011;40891;47.242;8.648;2023-06-22T13:23:59;15.50;;;6.15;;
54993;SDS011;40891;47.242;8.648;2023-06-22T13:26:25;17.90;;;6.03;;
54993;SDS011;40891;47.242;8.648;2023-06-22T13:28:50;17.27;;;5.35;;
54993;SDS011;40891;47.242;8.648;2023-06-22T13:31:15;16.73;;;4.65;;
54993;SDS011;40891;47.242;8.648;2023-06-22T13:33:41;16.17;;;4.60;;
54993;SDS011;40891;47.242;8.648;2023-06-22T13:36:06;13.80;;;4.88;;
54993;SDS011;40891;47.242;8.648;2023-06-22T13:38:32;13.50;;;5.05;;
54993;SDS011;40891;47.242;8.648;2023-06-22T13:40:58;15.00;;;4.80;;
54993;SDS011;40891;47.242;8.648;2023-06-22T13:43:24;12.13;;;4.53;;
54993;SDS011;40891;47.242;8.648;2023-06-22T13:45:51;15.68;;;4.68;;
54993;SDS011;40891;47.242;8.648;2023-06-22T13:48:17;15.30;;;3.97;;
54993;SDS011;40891;47.242;8.648;2023-06-22T13:50:42;14.23;;;3.97;;
54993;SDS011;40891;47.242;8.648;2023-06-22T13:53:08;16.23;;;3.78;;
54993;SDS011;40891;47.242;8.648;2023-06-22T13:55:33;14.23;;;3.28;;
54993;SDS011;40891;47.242;8.648;2023-06-22T13:57:59;9.00;;;2.97;;
54993;SDS011;40891;47.242;8.648;2023-06-22T14:00:24;16.70;;;2.95;;
54993;SDS011;40891;47.242;8.648;2023-06-22T14:02:49;9.57;;;3.15;;
54993;SDS011;40891;47.242;8.648;2023-06-22T14:05:15;10.57;;;2.80;;
54993;SDS011;40891;47.242;8.648;2023-06-22T14:07:41;12.88;;;3.05;;
54993;SDS011;40891;47.242;8.648;2023-06-22T14:10:06;14.93;;;3.33;;
54993;SDS011;40891;47.242;8.648;2023-06-22T14:12:32;9.38;;;2.90;;
54993;SDS011;40891;47.242;8.648;2023-06-22T14:14:57;13.80;;;3.60;;
54993;SDS011;40891;47.242;8.648;2023-06-22T14:17:22;13.48;;;3.92;;
54993;SDS011;40891;47.242;8.648;2023-06-22T14:19:50;7.15;;;3.20;;
54993;SDS011;40891;47.242;8.648;2023-06-22T14:22:17;17.65;;;3.50;;
54993;SDS011;40891;47.242;8.648;2023-06-22T14:24:43;12.82;;;3.60;;
54993;SDS011;40891;47.242;8.648;2023-06-22T14:27:09;12.63;;;3.30;;
54993;SDS011;40891;47.242;8.648;2023-06-22T14:29:34;8.27;;;3.33;;
54993;SDS011;40891;47.242;8.648;2023-06-22T14:32:00;12.13;;;3.33;;